sensor_id;sensor_type;location;lat;lon;timestamp;pressure;altitude;pressure_sealevel;temperature;humidity
25944;BME280;13742;49.306;8.636;2023-04-01T00:00:45;99036.25;;;10.74;80.01
25944;BME280;13742;49.306;8.636;2023-04-01T00:01:45;99031.56;;;10.73;80.08
25944;BME280;13742;49.306;8.636;2023-04-01T00:02:45;99040.31;;;10.73;79.79
25944;BME280;13742;49.306;8.636;2023-04-01T00:03:45;99039.31;;;10.72;79.92
25944;BME280;13742;49.306;8.636;2023-04-01T00:04:45;99037.63;;;10.72;80.13
25944;BME280;13742;49.306;8.636;2023-04-01T00:05:45;99044.44;;;10.72;80.13
25944;BME280;13742;49.306;8.636;2023-04-01T00:06:47;99033.39;;;10.72;79.96
25944;BME280;13742;49.306;8.636;2023-04-01T00:07:46;99038.98;;;10.71;80.11
25944;BME280;13742;49.306;8.636;2023-04-01T00:08:45;99041.41;;;10.70;80.35
25944;BME280;13742;49.306;8.636;2023-04-01T00:09:45;99041.78;;;10.69;80.25
25944;BME280;13742;49.306;8.636;2023-04-01T00:10:45;99035.61;;;10.67;80.30
25944;BME280;13742;49.306;8.636;2023-04-01T00:11:45;99038.00;;;10.67;80.59
25944;BME280;13742;49.306;8.636;2023-04-01T00:12:45;99037.66;;;10.65;80.51
25944;BME280;13742;49.306;8.636;2023-04-01T00:13:45;99037.09;;;10.62;80.53
25944;BME280;13742;49.306;8.636;2023-04-01T00:14:45;99035.40;;;10.63;80.76
25944;BME280;13742;49.306;8.636;2023-04-01T00:15:45;99031.98;;;10.62;80.86
25944;BME280;13742;49.306;8.636;2023-04-01T00:16:45;99041.23;;;10.62;80.74
25944;BME280;13742;49.306;8.636;2023-04-01T00:17:45;99034.85;;;10.61;80.71
25944;BME280;13742;49.306;8.636;2023-04-01T00:18:47;99037.43;;;10.61;80.70
25944;BME280;13742;49.306;8.636;2023-04-01T00:19:45;99039.41;;;10.61;80.64
25944;BME280;13742;49.306;8.636;2023-04-01T00:20:46;99031.49;;;10.60;80.78
25944;BME280;13742;49.306;8.636;2023-04-01T00:21:46;99033.85;;;10.59;80.81
25944;BME280;13742;49.306;8.636;2023-04-01T00:22:45;99035.77;;;10.58;80.91
25944;BME280;13742;49.306;8.636;2023-04-01T00:23:45;99022.67;;;10.58;80.92
25944;BME280;13742;49.306;8.636;2023-04-01T00:24:45;99033.89;;;10.57;80.80
25944;BME280;13742;49.306;8.636;2023-04-01T00:25:47;99024.66;;;10.57;80.94
25944;BME280;13742;49.306;8.636;2023-04-01T00:26:47;99030.16;;;10.55;81.09
25944;BME280;13742;49.306;8.636;2023-04-01T00:27:45;99025.14;;;10.54;81.19
25944;BME280;13742;49.306;8.636;2023-04-01T00:28:46;99028.34;;;10.52;81.31
25944;BME280;13742;49.306;8.636;2023-04-01T00:29:45;99022.70;;;10.51;81.37
25944;BME280;13742;49.306;8.636;2023-04-01T00:30:46;99025.73;;;10.51;81.34
25944;BME280;13742;49.306;8.636;2023-04-01T00:31:45;99027.27;;;10.50;81.47
25944;BME280;13742;49.306;8.636;2023-04-01T00:32:45;99025.95;;;10.50;81.47
25944;BME280;13742;49.306;8.636;2023-04-01T00:33:45;99018.08;;;10.48;81.52
25944;BME280;13742;49.306;8.636;2023-04-01T00:34:45;99022.80;;;10.47;81.43
25944;BME280;13742;49.306;8.636;2023-04-01T00:35:45;99030.24;;;10.48;81.65
25944;BME280;13742;49.306;8.636;2023-04-01T00:36:45;99027.98;;;10.47;81.73
25944;BME280;13742;49.306;8.636;2023-04-01T00:37:45;99023.36;;;10.46;81.50
25944;BME280;13742;49.306;8.636;2023-04-01T00:38:45;99035.86;;;10.47;81.33
25944;BME280;13742;49.306;8.636;2023-04-01T00:39:45;99031.50;;;10.44;81.56
25944;BME280;13742;49.306;8.636;2023-04-01T00:40:45;99027.38;;;10.46;81.45
25944;BME280;13742;49.306;8.636;2023-04-01T00:41:45;99029.56;;;10.44;81.51
25944;BME280;13742;49.306;8.636;2023-04-01T00:42:45;99033.75;;;10.45;81.42
25944;BME280;13742;49.306;8.636;2023-04-01T00:43:46;99029.52;;;10.46;81.55
25944;BME280;13742;49.306;8.636;2023-04-01T00:44:47;99036.61;;;10.46;81.58
25944;BME280;13742;49.306;8.636;2023-04-01T00:45:46;99031.67;;;10.46;81.44
25944;BME280;13742;49.306;8.636;2023-04-01T00:46:45;99033.91;;;10.45;81.57
25944;BME280;13742;49.306;8.636;2023-04-01T00:47:45;99033.59;;;10.45;81.65
25944;BME280;13742;49.306;8.636;2023-04-01T00:48:49;99036.45;;;10.45;81.56
25944;BME280;13742;49.306;8.636;2023-04-01T00:49:46;99031.34;;;10.46;81.40
25944;BME280;13742;49.306;8.636;2023-04-01T00:50:49;99031.07;;;10.47;81.38
25944;BME280;13742;49.306;8.636;2023-04-01T00:51:47;99035.97;;;10.46;81.24
25944;BME280;13742;49.306;8.636;2023-04-01T00:52:46;99029.42;;;10.47;81.30
25944;BME280;13742;49.306;8.636;2023-04-01T00:53:47;99045.27;;;10.48;81.27
25944;BME280;13742;49.306;8.636;2023-04-01T00:54:46;99040.85;;;10.47;81.26
25944;BME280;13742;49.306;8.636;2023-04-01T00:55:47;99036.50;;;10.47;81.29
25944;BME280;13742;49.306;8.636;2023-04-01T00:56:48;99037.49;;;10.47;81.34
25944;BME280;13742;49.306;8.636;2023-04-01T00:57:45;99031.56;;;10.48;81.08
25944;BME280;13742;49.306;8.636;2023-04-01T00:58:46;99033.38;;;10.48;81.01
25944;BME280;13742;49.306;8.636;2023-04-01T00:59:46;99030.29;;;10.48;81.15
25944;BME280;13742;49.306;8.636;2023-04-01T01:00:46;99030.30;;;10.49;80.79
25944;BME280;13742;49.306;8.636;2023-04-01T01:01:45;99039.05;;;10.50;80.93
25944;BME280;13742;49.306;8.636;2023-04-01T01:02:46;99034.16;;;10.50;81.08
25944;BME280;13742;49.306;8.636;2023-04-01T01:03:45;99026.89;;;10.51;80.81
25944;BME280;13742;49.306;8.636;2023-04-01T01:04:45;99035.08;;;10.50;80.87
25944;BME280;13742;49.306;8.636;2023-04-01T01:09:52;99030.52;;;10.50;81.42
25944;BME280;13742;49.306;8.636;2023-04-01T01:10:48;99025.80;;;10.51;81.37
25944;BME280;13742;49.306;8.636;2023-04-01T01:11:48;99030.03;;;10.50;81.31
25944;BME280;13742;49.306;8.636;2023-04-01T01:13:48;99023.25;;;10.49;81.62
25944;BME280;13742;49.306;8.636;2023-04-01T01:16:47;99015.06;;;10.48;81.75
25944;BME280;13742;49.306;8.636;2023-04-01T01:18:48;99019.47;;;10.49;81.18
25944;BME280;13742;49.306;8.636;2023-04-01T01:19:52;99008.84;;;10.48;81.40
25944;BME280;13742;49.306;8.636;2023-04-01T01:21:51;99022.04;;;10.48;81.45
25944;BME280;13742;49.306;8.636;2023-04-01T01:22:50;99020.28;;;10.48;81.48
25944;BME280;13742;49.306;8.636;2023-04-01T01:23:54;99006.64;;;10.46;81.68
25944;BME280;13742;49.306;8.636;2023-04-01T01:26:08;99015.77;;;10.45;81.51
25944;BME280;13742;49.306;8.636;2023-04-01T01:26:50;99008.83;;;10.44;81.68
25944;BME280;13742;49.306;8.636;2023-04-01T01:27:49;99016.42;;;10.44;81.65
25944;BME280;13742;49.306;8.636;2023-04-01T01:30:48;99012.84;;;10.43;81.51
25944;BME280;13742;49.306;8.636;2023-04-01T01:35:49;99008.95;;;10.45;80.69
25944;BME280;13742;49.306;8.636;2023-04-01T01:36:45;99003.41;;;10.45;80.96
25944;BME280;13742;49.306;8.636;2023-04-01T01:37:45;99009.27;;;10.44;80.77
25944;BME280;13742;49.306;8.636;2023-04-01T01:38:45;99005.81;;;10.45;80.68
25944;BME280;13742;49.306;8.636;2023-04-01T01:39:47;99006.47;;;10.46;80.41
25944;BME280;13742;49.306;8.636;2023-04-01T01:40:46;99001.80;;;10.47;80.26
25944;BME280;13742;49.306;8.636;2023-04-01T01:41:46;99000.58;;;10.48;80.08
25944;BME280;13742;49.306;8.636;2023-04-01T01:42:46;99003.66;;;10.47;80.44
25944;BME280;13742;49.306;8.636;2023-04-01T01:43:46;99001.86;;;10.48;80.22
25944;BME280;13742;49.306;8.636;2023-04-01T01:44:45;99002.80;;;10.49;80.23
25944;BME280;13742;49.306;8.636;2023-04-01T01:45:49;99004.77;;;10.48;80.34
25944;BME280;13742;49.306;8.636;2023-04-01T01:46:45;99005.16;;;10.48;80.38
25944;BME280;13742;49.306;8.636;2023-04-01T01:47:46;99002.19;;;10.48;80.35
25944;BME280;13742;49.306;8.636;2023-04-01T01:48:45;98999.33;;;10.48;80.18
25944;BME280;13742;49.306;8.636;2023-04-01T01:49:45;99000.43;;;10.49;79.83
25944;BME280;13742;49.306;8.636;2023-04-01T01:50:45;98999.66;;;10.48;79.64
25944;BME280;13742;49.306;8.636;2023-04-01T01:51:45;98998.13;;;10.49;79.76
25944;BME280;13742;49.306;8.636;2023-04-01T01:52:45;98999.22;;;10.49;79.93
25944;BME280;13742;49.306;8.636;2023-04-01T01:53:45;98995.92;;;10.50;79.95
25944;BME280;13742;49.306;8.636;2023-04-01T01:54:46;99001.69;;;10.49;79.93
25944;BME280;13742;49.306;8.636;2023-04-01T01:55:46;98999.22;;;10.49;79.97
25944;BME280;13742;49.306;8.636;2023-04-01T01:56:46;98994.15;;;10.48;79.96
25944;BME280;13742;49.306;8.636;2023-04-01T01:57:45;98995.42;;;10.49;79.90
25944;BME280;13742;49.306;8.636;2023-04-01T01:58:47;98997.13;;;10.48;80.02
25944;BME280;13742;49.306;8.636;2023-04-01T01:59:45;98996.09;;;10.48;79.92
25944;BME280;13742;49.306;8.636;2023-04-01T02:00:50;98996.63;;;10.48;80.06
25944;BME280;13742;49.306;8.636;2023-04-01T02:01:46;98998.39;;;10.48;80.14
25944;BME280;13742;49.306;8.636;2023-04-01T02:02:46;98994.98;;;10.48;79.98
25944;BME280;13742;49.306;8.636;2023-04-01T02:03:45;98990.53;;;10.48;79.77
25944;BME280;13742;49.306;8.636;2023-04-01T02:04:45;98995.09;;;10.48;79.17
25944;BME280;13742;49.306;8.636;2023-04-01T02:05:45;98991.25;;;10.50;79.02
25944;BME280;13742;49.306;8.636;2023-04-01T02:06:48;98996.08;;;10.49;79.04
25944;BME280;13742;49.306;8.636;2023-04-01T02:07:46;98997.52;;;10.51;78.89
25944;BME280;13742;49.306;8.636;2023-04-01T02:08:47;99002.96;;;10.51;78.65
25944;BME280;13742;49.306;8.636;2023-04-01T02:09:45;98993.98;;;10.51;78.64
25944;BME280;13742;49.306;8.636;2023-04-01T02:10:48;98999.61;;;10.53;78.11
25944;BME280;13742;49.306;8.636;2023-04-01T02:11:46;99000.00;;;10.54;78.25
25944;BME280;13742;49.306;8.636;2023-04-01T02:12:45;98992.86;;;10.55;77.95
25944;BME280;13742;49.306;8.636;2023-04-01T02:14:47;98998.09;;;10.57;77.56
25944;BME280;13742;49.306;8.636;2023-04-01T02:15:46;98991.86;;;10.59;77.31
25944;BME280;13742;49.306;8.636;2023-04-01T02:16:48;98996.49;;;10.59;77.44
25944;BME280;13742;49.306;8.636;2023-04-01T02:17:45;98998.08;;;10.60;77.50
25944;BME280;13742;49.306;8.636;2023-04-01T02:18:45;98998.80;;;10.61;77.30
25944;BME280;13742;49.306;8.636;2023-04-01T02:19:47;98998.69;;;10.62;77.19
25944;BME280;13742;49.306;8.636;2023-04-01T02:20:45;99001.39;;;10.63;76.73
25944;BME280;13742;49.306;8.636;2023-04-01T02:21:45;98994.78;;;10.63;76.96
25944;BME280;13742;49.306;8.636;2023-04-01T02:22:49;98997.27;;;10.63;76.93
25944;BME280;13742;49.306;8.636;2023-04-01T02:23:45;98994.67;;;10.64;76.94
25944;BME280;13742;49.306;8.636;2023-04-01T02:24:46;98986.05;;;10.63;76.95
25944;BME280;13742;49.306;8.636;2023-04-01T02:25:45;99005.30;;;10.65;76.92
25944;BME280;13742;49.306;8.636;2023-04-01T02:26:45;98995.73;;;10.65;76.67
25944;BME280;13742;49.306;8.636;2023-04-01T02:27:45;98996.89;;;10.65;76.72
25944;BME280;13742;49.306;8.636;2023-04-01T02:28:45;98999.91;;;10.66;76.80
25944;BME280;13742;49.306;8.636;2023-04-01T02:29:45;98993.97;;;10.66;76.75
25944;BME280;13742;49.306;8.636;2023-04-01T02:30:45;99003.94;;;10.67;76.50
25944;BME280;13742;49.306;8.636;2023-04-01T02:31:45;98993.81;;;10.66;76.61
25944;BME280;13742;49.306;8.636;2023-04-01T02:32:45;98994.67;;;10.67;76.56
25944;BME280;13742;49.306;8.636;2023-04-01T02:33:45;98988.27;;;10.68;76.42
25944;BME280;13742;49.306;8.636;2023-04-01T02:34:45;98997.34;;;10.68;76.34
25944;BME280;13742;49.306;8.636;2023-04-01T02:35:45;98991.40;;;10.68;76.30
25944;BME280;13742;49.306;8.636;2023-04-01T02:36:45;99000.69;;;10.68;76.46
25944;BME280;13742;49.306;8.636;2023-04-01T02:37:48;98996.02;;;10.69;76.37
25944;BME280;13742;49.306;8.636;2023-04-01T02:38:45;98993.14;;;10.67;76.54
25944;BME280;13742;49.306;8.636;2023-04-01T02:39:45;98990.56;;;10.68;76.45
25944;BME280;13742;49.306;8.636;2023-04-01T02:41:45;99000.14;;;10.69;76.25
25944;BME280;13742;49.306;8.636;2023-04-01T02:42:45;98992.27;;;10.69;76.18
25944;BME280;13742;49.306;8.636;2023-04-01T02:43:45;98997.38;;;10.69;76.32
25944;BME280;13742;49.306;8.636;2023-04-01T02:44:45;98996.06;;;10.69;76.21
25944;BME280;13742;49.306;8.636;2023-04-01T02:45:45;98993.20;;;10.68;76.30
25944;BME280;13742;49.306;8.636;2023-04-01T02:46:45;99013.63;;;10.70;76.35
25944;BME280;13742;49.306;8.636;2023-04-01T02:47:45;98988.14;;;10.69;76.48
25944;BME280;13742;49.306;8.636;2023-04-01T02:48:45;98994.86;;;10.69;76.46
25944;BME280;13742;49.306;8.636;2023-04-01T02:49:45;98999.09;;;10.69;76.53
25944;BME280;13742;49.306;8.636;2023-04-01T02:50:45;98996.83;;;10.68;76.73
25944;BME280;13742;49.306;8.636;2023-04-01T02:51:45;98997.33;;;10.68;76.92
25944;BME280;13742;49.306;8.636;2023-04-01T02:52:45;98995.09;;;10.69;77.13
25944;BME280;13742;49.306;8.636;2023-04-01T02:53:45;98996.78;;;10.69;77.37
25944;BME280;13742;49.306;8.636;2023-04-01T02:54:45;98994.97;;;10.68;77.77
25944;BME280;13742;49.306;8.636;2023-04-01T02:55:45;99001.73;;;10.68;77.89
25944;BME280;13742;49.306;8.636;2023-04-01T02:56:45;98993.64;;;10.67;78.29
25944;BME280;13742;49.306;8.636;2023-04-01T02:57:45;99012.07;;;10.66;78.42
25944;BME280;13742;49.306;8.636;2023-04-01T02:58:45;98995.01;;;10.67;78.53
25944;BME280;13742;49.306;8.636;2023-04-01T02:59:45;99004.75;;;10.67;78.65
25944;BME280;13742;49.306;8.636;2023-04-01T03:00:45;99002.77;;;10.65;78.76
25944;BME280;13742;49.306;8.636;2023-04-01T03:01:45;99000.75;;;10.65;78.85
25944;BME280;13742;49.306;8.636;2023-04-01T03:02:45;98995.45;;;10.64;79.08
25944;BME280;13742;49.306;8.636;2023-04-01T03:03:45;99008.88;;;10.64;79.11
25944;BME280;13742;49.306;8.636;2023-04-01T03:04:45;99003.09;;;10.62;79.06
25944;BME280;13742;49.306;8.636;2023-04-01T03:05:45;98995.84;;;10.61;79.22
25944;BME280;13742;49.306;8.636;2023-04-01T03:06:45;98999.36;;;10.62;79.24
25944;BME280;13742;49.306;8.636;2023-04-01T03:07:45;98993.58;;;10.62;79.26
25944;BME280;13742;49.306;8.636;2023-04-01T03:08:45;98998.31;;;10.62;78.78
25944;BME280;13742;49.306;8.636;2023-04-01T03:09:45;98998.20;;;10.63;78.83
25944;BME280;13742;49.306;8.636;2023-04-01T03:10:45;99004.25;;;10.62;79.06
25944;BME280;13742;49.306;8.636;2023-04-01T03:11:45;99004.05;;;10.62;79.37
25944;BME280;13742;49.306;8.636;2023-04-01T03:12:45;98999.41;;;10.60;79.30
25944;BME280;13742;49.306;8.636;2023-04-01T03:13:45;98999.58;;;10.60;79.49
25944;BME280;13742;49.306;8.636;2023-04-01T03:14:45;98998.75;;;10.60;79.29
25944;BME280;13742;49.306;8.636;2023-04-01T03:15:45;99003.10;;;10.60;79.16
25944;BME280;13742;49.306;8.636;2023-04-01T03:16:45;98996.59;;;10.60;79.43
25944;BME280;13742;49.306;8.636;2023-04-01T03:17:46;99003.37;;;10.60;79.34
25944;BME280;13742;49.306;8.636;2023-04-01T03:18:45;98998.70;;;10.59;79.30
25944;BME280;13742;49.306;8.636;2023-04-01T03:19:45;99002.92;;;10.59;79.21
25944;BME280;13742;49.306;8.636;2023-04-01T03:20:45;99005.80;;;10.59;79.23
25944;BME280;13742;49.306;8.636;2023-04-01T03:21:45;99006.78;;;10.59;79.41
25944;BME280;13742;49.306;8.636;2023-04-01T03:22:45;99005.02;;;10.57;79.56
25944;BME280;13742;49.306;8.636;2023-04-01T03:23:45;99004.62;;;10.57;79.74
25944;BME280;13742;49.306;8.636;2023-04-01T03:24:45;99006.50;;;10.56;79.43
25944;BME280;13742;49.306;8.636;2023-04-01T03:25:45;99011.39;;;10.53;79.59
25944;BME280;13742;49.306;8.636;2023-04-01T03:26:45;99011.81;;;10.51;79.53
25944;BME280;13742;49.306;8.636;2023-04-01T03:27:45;99006.20;;;10.49;79.37
25944;BME280;13742;49.306;8.636;2023-04-01T03:28:45;99006.09;;;10.48;79.48
25944;BME280;13742;49.306;8.636;2023-04-01T03:29:45;99004.71;;;10.47;79.63
25944;BME280;13742;49.306;8.636;2023-04-01T03:30:45;99004.56;;;10.48;79.56
25944;BME280;13742;49.306;8.636;2023-04-01T03:31:45;99003.52;;;10.47;79.30
25944;BME280;13742;49.306;8.636;2023-04-01T03:32:45;99011.03;;;10.45;79.43
25944;BME280;13742;49.306;8.636;2023-04-01T03:33:45;99007.47;;;10.44;79.29
25944;BME280;13742;49.306;8.636;2023-04-01T03:34:45;99001.30;;;10.42;79.31
25944;BME280;13742;49.306;8.636;2023-04-01T03:35:45;99000.95;;;10.42;79.35
25944;BME280;13742;49.306;8.636;2023-04-01T03:36:45;99003.61;;;10.41;79.30
25944;BME280;13742;49.306;8.636;2023-04-01T03:37:45;99002.72;;;10.40;79.45
25944;BME280;13742;49.306;8.636;2023-04-01T03:38:45;99004.48;;;10.39;79.34
25944;BME280;13742;49.306;8.636;2023-04-01T03:39:45;99000.47;;;10.38;79.49
25944;BME280;13742;49.306;8.636;2023-04-01T03:40:45;98993.59;;;10.37;79.27
25944;BME280;13742;49.306;8.636;2023-04-01T03:41:45;99000.95;;;10.36;79.34
25944;BME280;13742;49.306;8.636;2023-04-01T03:42:45;99000.94;;;10.36;79.16
25944;BME280;13742;49.306;8.636;2023-04-01T03:43:45;99005.22;;;10.34;79.25
25944;BME280;13742;49.306;8.636;2023-04-01T03:44:45;99000.50;;;10.32;79.47
25944;BME280;13742;49.306;8.636;2023-04-01T03:45:49;98996.70;;;10.32;79.55
25944;BME280;13742;49.306;8.636;2023-04-01T03:46:45;98996.91;;;10.32;79.66
25944;BME280;13742;49.306;8.636;2023-04-01T03:47:45;98999.72;;;10.32;79.75
25944;BME280;13742;49.306;8.636;2023-04-01T03:48:45;99000.59;;;10.31;79.67
25944;BME280;13742;49.306;8.636;2023-04-01T03:49:45;99002.41;;;10.31;79.53
25944;BME280;13742;49.306;8.636;2023-04-01T03:50:45;99004.17;;;10.30;79.61
25944;BME280;13742;49.306;8.636;2023-04-01T03:51:45;99000.16;;;10.28;79.88
25944;BME280;13742;49.306;8.636;2023-04-01T03:52:45;99003.72;;;10.28;80.05
25944;BME280;13742;49.306;8.636;2023-04-01T03:53:45;99013.96;;;10.28;80.00
25944;BME280;13742;49.306;8.636;2023-04-01T03:54:45;99007.47;;;10.29;80.00
25944;BME280;13742;49.306;8.636;2023-04-01T03:55:45;99012.36;;;10.29;80.18
25944;BME280;13742;49.306;8.636;2023-04-01T03:56:45;99007.34;;;10.28;80.47
25944;BME280;13742;49.306;8.636;2023-04-01T03:57:45;99008.84;;;10.28;80.96
25944;BME280;13742;49.306;8.636;2023-04-01T03:58:45;99006.15;;;10.29;80.85
25944;BME280;13742;49.306;8.636;2023-04-01T03:59:45;99007.40;;;10.27;80.97
25944;BME280;13742;49.306;8.636;2023-04-01T04:00:45;99004.71;;;10.27;80.97
25944;BME280;13742;49.306;8.636;2023-04-01T04:01:46;99009.05;;;10.26;80.72
25944;BME280;13742;49.306;8.636;2023-04-01T04:02:45;99007.45;;;10.26;80.71
25944;BME280;13742;49.306;8.636;2023-04-01T04:03:45;99011.96;;;10.25;80.97
25944;BME280;13742;49.306;8.636;2023-04-01T04:04:46;99011.68;;;10.24;81.13
25944;BME280;13742;49.306;8.636;2023-04-01T04:05:46;99013.98;;;10.24;81.26
25944;BME280;13742;49.306;8.636;2023-04-01T04:06:45;99008.22;;;10.24;81.15
25944;BME280;13742;49.306;8.636;2023-04-01T04:07:45;99003.92;;;10.24;81.13
25944;BME280;13742;49.306;8.636;2023-04-01T04:08:45;99010.42;;;10.24;81.24
25944;BME280;13742;49.306;8.636;2023-04-01T04:09:45;99013.66;;;10.24;81.44
25944;BME280;13742;49.306;8.636;2023-04-01T04:10:46;99014.53;;;10.22;81.62
25944;BME280;13742;49.306;8.636;2023-04-01T04:11:45;99013.16;;;10.20;81.59
25944;BME280;13742;49.306;8.636;2023-04-01T04:12:45;99017.89;;;10.21;81.68
25944;BME280;13742;49.306;8.636;2023-04-01T04:13:45;99020.41;;;10.18;81.74
25944;BME280;13742;49.306;8.636;2023-04-01T04:14:45;99023.38;;;10.17;81.94
25944;BME280;13742;49.306;8.636;2023-04-01T04:15:45;99018.58;;;10.16;82.08
25944;BME280;13742;49.306;8.636;2023-04-01T04:16:45;99018.25;;;10.16;82.06
25944;BME280;13742;49.306;8.636;2023-04-01T04:17:45;99014.96;;;10.16;82.29
25944;BME280;13742;49.306;8.636;2023-04-01T04:18:45;99012.64;;;10.14;82.48
25944;BME280;13742;49.306;8.636;2023-04-01T04:19:45;99018.51;;;10.12;82.44
25944;BME280;13742;49.306;8.636;2023-04-01T04:20:50;99018.90;;;10.12;82.67
25944;BME280;13742;49.306;8.636;2023-04-01T04:21:45;99022.25;;;10.10;82.87
25944;BME280;13742;49.306;8.636;2023-04-01T04:22:45;99025.20;;;10.08;82.95
25944;BME280;13742;49.306;8.636;2023-04-01T04:23:45;99024.27;;;10.06;83.09
25944;BME280;13742;49.306;8.636;2023-04-01T04:24:45;99021.41;;;10.06;83.33
25944;BME280;13742;49.306;8.636;2023-04-01T04:26:45;99023.66;;;10.05;83.69
25944;BME280;13742;49.306;8.636;2023-04-01T04:27:45;99015.41;;;10.05;83.81
25944;BME280;13742;49.306;8.636;2023-04-01T04:28:45;99014.80;;;10.04;83.99
25944;BME280;13742;49.306;8.636;2023-04-01T04:29:45;99015.83;;;10.03;83.81
25944;BME280;13742;49.306;8.636;2023-04-01T04:30:45;99015.00;;;10.03;83.98
25944;BME280;13742;49.306;8.636;2023-04-01T04:31:45;99016.55;;;10.02;83.91
25944;BME280;13742;49.306;8.636;2023-04-01T04:32:45;99021.70;;;10.01;84.02
25944;BME280;13742;49.306;8.636;2023-04-01T04:33:45;99019.83;;;10.00;83.94
25944;BME280;13742;49.306;8.636;2023-04-01T04:34:45;99015.32;;;10.00;83.91
25944;BME280;13742;49.306;8.636;2023-04-01T04:35:45;99010.88;;;9.98;84.34
25944;BME280;13742;49.306;8.636;2023-04-01T04:36:45;99013.25;;;9.99;84.24
25944;BME280;13742;49.306;8.636;2023-04-01T04:37:45;99010.28;;;9.99;84.24
25944;BME280;13742;49.306;8.636;2023-04-01T04:38:45;99010.77;;;9.98;84.53
25944;BME280;13742;49.306;8.636;2023-04-01T04:39:45;99014.83;;;9.95;84.93
25944;BME280;13742;49.306;8.636;2023-04-01T04:40:45;99006.08;;;9.93;84.91
25944;BME280;13742;49.306;8.636;2023-04-01T04:41:45;99004.38;;;9.94;85.00
25944;BME280;13742;49.306;8.636;2023-04-01T04:42:45;99000.53;;;9.93;84.99
25944;BME280;13742;49.306;8.636;2023-04-01T04:43:48;99003.78;;;9.93;84.76
25944;BME280;13742;49.306;8.636;2023-04-01T04:44:45;98997.39;;;9.94;84.49
25944;BME280;13742;49.306;8.636;2023-04-01T04:45:45;98991.46;;;9.93;84.41
25944;BME280;13742;49.306;8.636;2023-04-01T04:46:45;98992.61;;;9.93;84.42
25944;BME280;13742;49.306;8.636;2023-04-01T04:47:45;98985.70;;;9.94;84.23
25944;BME280;13742;49.306;8.636;2023-04-01T04:48:45;98986.23;;;9.92;84.36
25944;BME280;13742;49.306;8.636;2023-04-01T04:49:45;98992.89;;;9.92;84.40
25944;BME280;13742;49.306;8.636;2023-04-01T04:50:46;98988.27;;;9.92;84.13
25944;BME280;13742;49.306;8.636;2023-04-01T04:51:45;98995.36;;;9.93;84.46
25944;BME280;13742;49.306;8.636;2023-04-01T04:52:45;98992.02;;;9.93;84.34
25944;BME280;13742;49.306;8.636;2023-04-01T04:53:45;98989.55;;;9.93;84.23
25944;BME280;13742;49.306;8.636;2023-04-01T04:54:45;98986.24;;;9.93;84.43
25944;BME280;13742;49.306;8.636;2023-04-01T04:55:46;98987.94;;;9.92;84.28
25944;BME280;13742;49.306;8.636;2023-04-01T04:56:45;98984.69;;;9.91;84.10
25944;BME280;13742;49.306;8.636;2023-04-01T04:57:45;98984.05;;;9.92;83.95
25944;BME280;13742;49.306;8.636;2023-04-01T04:58:45;98980.75;;;9.92;83.90
25944;BME280;13742;49.306;8.636;2023-04-01T04:59:45;98980.97;;;9.93;83.69
25944;BME280;13742;49.306;8.636;2023-04-01T05:00:45;98979.55;;;9.94;83.46
25944;BME280;13742;49.306;8.636;2023-04-01T05:01:45;98982.08;;;9.95;83.49
25944;BME280;13742;49.306;8.636;2023-04-01T05:02:45;98986.41;;;9.95;83.34
25944;BME280;13742;49.306;8.636;2023-04-01T05:03:45;98983.57;;;9.97;82.92
25944;BME280;13742;49.306;8.636;2023-04-01T05:04:45;98977.53;;;9.98;83.06
25944;BME280;13742;49.306;8.636;2023-04-01T05:05:49;98981.70;;;9.98;83.08
25944;BME280;13742;49.306;8.636;2023-04-01T05:06:45;98979.02;;;9.99;83.08
25944;BME280;13742;49.306;8.636;2023-04-01T05:07:45;98980.22;;;9.98;83.21
25944;BME280;13742;49.306;8.636;2023-04-01T05:08:45;98976.97;;;9.99;82.76
25944;BME280;13742;49.306;8.636;2023-04-01T05:09:45;98978.73;;;10.01;82.41
25944;BME280;13742;49.306;8.636;2023-04-01T05:10:45;98977.45;;;10.01;82.20
25944;BME280;13742;49.306;8.636;2023-04-01T05:11:45;98976.63;;;10.01;82.25
25944;BME280;13742;49.306;8.636;2023-04-01T05:12:45;98973.55;;;10.02;82.26
25944;BME280;13742;49.306;8.636;2023-04-01T05:13:45;98975.50;;;10.03;82.42
25944;BME280;13742;49.306;8.636;2023-04-01T05:14:45;98978.80;;;10.04;82.26
25944;BME280;13742;49.306;8.636;2023-04-01T05:15:45;98972.03;;;10.04;81.98
25944;BME280;13742;49.306;8.636;2023-04-01T05:16:45;98973.68;;;10.06;81.87
25944;BME280;13742;49.306;8.636;2023-04-01T05:17:45;98975.63;;;10.07;81.65
25944;BME280;13742;49.306;8.636;2023-04-01T05:18:45;98981.29;;;10.09;81.67
25944;BME280;13742;49.306;8.636;2023-04-01T05:19:45;98977.98;;;10.09;81.44
25944;BME280;13742;49.306;8.636;2023-04-01T05:20:54;98980.56;;;10.11;81.10
25944;BME280;13742;49.306;8.636;2023-04-01T05:21:45;98977.61;;;10.11;81.23
25944;BME280;13742;49.306;8.636;2023-04-01T05:22:45;98985.86;;;10.11;81.43
25944;BME280;13742;49.306;8.636;2023-04-01T05:23:45;98972.72;;;10.12;81.22
25944;BME280;13742;49.306;8.636;2023-04-01T05:24:45;98979.70;;;10.13;81.13
25944;BME280;13742;49.306;8.636;2023-04-01T05:25:45;98976.23;;;10.14;80.81
25944;BME280;13742;49.306;8.636;2023-04-01T05:26:45;98979.39;;;10.15;80.80
25944;BME280;13742;49.306;8.636;2023-04-01T05:27:45;98978.78;;;10.15;80.90
25944;BME280;13742;49.306;8.636;2023-04-01T05:28:45;98981.81;;;10.16;80.96
25944;BME280;13742;49.306;8.636;2023-04-01T05:29:45;98983.73;;;10.16;80.99
25944;BME280;13742;49.306;8.636;2023-04-01T05:30:45;98972.62;;;10.17;80.76
25944;BME280;13742;49.306;8.636;2023-04-01T05:31:45;98977.74;;;10.18;80.61
25944;BME280;13742;49.306;8.636;2023-04-01T05:32:45;98974.94;;;10.19;80.33
25944;BME280;13742;49.306;8.636;2023-04-01T05:33:45;98974.45;;;10.20;80.56
25944;BME280;13742;49.306;8.636;2023-04-01T05:34:45;98978.25;;;10.20;80.73
25944;BME280;13742;49.306;8.636;2023-04-01T05:35:45;98977.35;;;10.19;80.93
25944;BME280;13742;49.306;8.636;2023-04-01T05:36:45;98977.53;;;10.20;80.91
25944;BME280;13742;49.306;8.636;2023-04-01T05:37:45;98976.70;;;10.20;80.85